createdAt,value
2019-02-19T00:00:53.939Z,10.40
2019-02-19T00:03:35.033Z,10.30
2019-02-19T00:06:16.223Z,10.40
2019-02-19T00:08:57.558Z,10.40
2019-02-19T00:11:38.569Z,10.30
2019-02-19T00:14:19.760Z,10.20
2019-02-19T00:17:00.225Z,10.20
2019-02-19T00:19:40.942Z,10.30
2019-02-19T00:22:21.407Z,10.40
2019-02-19T00:25:02.176Z,10.30
2019-02-19T00:27:42.945Z,10.20
2019-02-19T00:30:23.901Z,10.10
2019-02-19T00:33:04.687Z,10.00
2019-02-19T00:35:45.000Z,10.10
2019-02-19T00:38:25.827Z,10.20
2019-02-19T00:41:06.500Z,10.20
2019-02-19T00:43:47.185Z,10.20
2019-02-19T00:46:27.751Z,10.30
2019-02-19T00:49:08.350Z,10.30
2019-02-19T00:51:48.947Z,10.30
2019-02-19T00:54:29.322Z,10.20
2019-02-19T00:57:10.200Z,10.10
2019-02-19T00:59:50.607Z,10.20
2019-02-19T01:02:31.222Z,10.10
2019-02-19T01:05:12.198Z,9.80
2019-02-19T01:07:52.557Z,9.60
2019-02-19T01:10:33.365Z,9.50
2019-02-19T01:13:13.981Z,9.40
2019-02-19T01:15:54.669Z,9.40
2019-02-19T01:18:35.580Z,9.50
2019-02-19T01:21:16.234Z,9.50
2019-02-19T01:23:57.416Z,9.50
2019-02-19T01:26:37.970Z,9.30
2019-02-19T01:29:18.974Z,9.30
2019-02-19T01:32:00.202Z,9.30
2019-02-19T01:34:40.746Z,9.30
2019-02-19T01:37:21.260Z,9.40
2019-02-19T01:40:02.026Z,9.40
2019-02-19T01:42:42.558Z,9.40
2019-02-19T01:45:23.026Z,9.40
2019-02-19T01:48:03.808Z,9.40
2019-02-19T01:50:44.158Z,9.40
2019-02-19T01:53:24.894Z,9.40
2019-02-19T01:56:05.250Z,9.40
2019-02-19T01:58:45.690Z,9.40
2019-02-19T02:01:26.456Z,9.40
2019-02-19T02:04:07.008Z,9.40
2019-02-19T02:06:47.602Z,9.40
2019-02-19T02:09:28.414Z,9.40
2019-02-19T02:12:09.619Z,9.40
2019-02-19T02:14:50.154Z,9.50
2019-02-19T02:17:30.862Z,9.40
2019-02-19T02:20:11.607Z,9.30
2019-02-19T02:22:52.060Z,9.30
2019-02-19T02:25:32.686Z,9.40
2019-02-19T02:28:13.662Z,9.30
2019-02-19T02:30:54.886Z,9.30
2019-02-19T02:33:35.322Z,9.40
2019-02-19T02:36:16.004Z,9.40
2019-02-19T02:38:56.678Z,9.40
2019-02-19T02:41:37.160Z,9.40
2019-02-19T02:44:17.782Z,9.40
2019-02-19T02:46:58.390Z,9.40
2019-02-19T02:49:38.965Z,9.40
2019-02-19T02:52:19.417Z,9.20
2019-02-19T02:54:59.996Z,9.10
2019-02-19T02:57:40.578Z,9.00
2019-02-19T03:00:21.034Z,8.80
2019-02-19T03:03:01.520Z,8.60
2019-02-19T03:05:48.496Z,8.50
2019-02-19T03:08:29.494Z,8.40
2019-02-19T03:11:10.508Z,8.00
2019-02-19T03:13:51.305Z,7.90
2019-02-19T03:16:31.666Z,7.90
2019-02-19T03:19:12.159Z,7.70
2019-02-19T03:21:52.858Z,7.70
2019-02-19T03:24:33.260Z,7.70
2019-02-19T03:27:13.881Z,7.70
2019-02-19T03:29:54.962Z,7.80
2019-02-19T03:32:35.570Z,7.80
2019-02-19T03:35:16.386Z,7.90
2019-02-19T03:37:56.862Z,8.20
2019-02-19T03:40:37.799Z,8.30
2019-02-19T03:43:18.967Z,8.50
2019-02-19T03:45:59.419Z,8.60
2019-02-19T03:48:40.423Z,8.70
2019-02-19T03:51:20.893Z,8.80
2019-02-19T03:54:01.674Z,8.90
2019-02-19T03:56:42.607Z,8.80
2019-02-19T03:59:23.310Z,8.80
2019-02-19T04:02:04.170Z,8.90
2019-02-19T04:04:45.157Z,8.90
2019-02-19T04:07:25.683Z,8.90
2019-02-19T04:10:06.434Z,8.80
2019-02-19T04:12:35.189Z,8.70
2019-02-19T04:15:24.979Z,8.60
2019-02-19T04:18:13.368Z,8.60
2019-02-19T04:20:54.223Z,8.60
2019-02-19T04:23:34.567Z,8.70
2019-02-19T04:26:15.371Z,8.80
2019-02-19T04:28:56.085Z,8.80
2019-02-19T04:31:36.715Z,8.90
2019-02-19T04:34:17.385Z,8.90
2019-02-19T04:36:57.988Z,8.90
2019-02-19T04:39:39.459Z,8.80
2019-02-19T04:42:20.054Z,8.90
2019-02-19T04:45:00.982Z,9.00
2019-02-19T04:47:42.134Z,8.90
2019-02-19T04:50:22.844Z,8.90
2019-02-19T04:53:03.740Z,8.90
2019-02-19T04:55:44.161Z,8.80
2019-02-19T04:58:25.000Z,8.90
2019-02-19T05:01:05.778Z,8.90
2019-02-19T05:03:46.313Z,9.00
2019-02-19T05:06:27.225Z,9.00
2019-02-19T05:09:08.023Z,9.10
2019-02-19T05:11:48.646Z,9.20
2019-02-19T05:14:29.322Z,8.90
2019-02-19T05:17:09.936Z,8.70
2019-02-19T05:19:50.326Z,8.70
2019-02-19T05:22:30.998Z,8.60
2019-02-19T05:25:10.081Z,8.60
2019-02-19T05:27:58.724Z,8.60
2019-02-19T05:30:46.736Z,8.60
2019-02-19T05:33:34.705Z,8.60
2019-02-19T05:36:22.706Z,8.60
2019-02-19T05:39:10.682Z,8.70
2019-02-19T05:41:58.678Z,8.70
2019-02-19T05:44:46.942Z,8.70
2019-02-19T05:47:35.005Z,8.70
2019-02-19T05:50:24.646Z,8.70
2019-02-19T05:53:12.610Z,8.70
2019-02-19T05:56:00.668Z,8.60
2019-02-19T05:58:48.915Z,8.70
2019-02-19T06:01:37.494Z,8.70
2019-02-19T06:04:25.514Z,8.60
2019-02-19T06:07:13.570Z,8.70
2019-02-19T06:10:01.890Z,8.70
2019-02-19T06:12:50.394Z,8.70
2019-02-19T06:15:38.396Z,8.70
2019-02-19T06:18:26.376Z,8.80
2019-02-19T06:21:06.997Z,8.80
2019-02-19T06:23:47.851Z,8.80
2019-02-19T06:26:29.104Z,8.80
2019-02-19T06:29:09.348Z,8.80
2019-02-19T06:31:50.275Z,8.90
2019-02-19T06:34:30.627Z,8.90
2019-02-19T06:37:11.269Z,8.90
2019-02-19T06:39:51.879Z,8.80
2019-02-19T06:42:32.431Z,8.90
2019-02-19T06:45:13.389Z,8.90
2019-02-19T06:47:54.314Z,8.90
2019-02-19T06:50:34.853Z,8.90
2019-02-19T06:53:15.638Z,8.80
2019-02-19T06:55:56.463Z,8.80
2019-02-19T06:58:36.816Z,8.80
2019-02-19T07:01:20.755Z,8.90
2019-02-19T07:04:06.032Z,9.00
2019-02-19T07:06:47.235Z,9.10
2019-02-19T07:09:27.590Z,9.00
2019-02-19T07:12:08.542Z,9.10
2019-02-19T07:14:49.459Z,9.10
2019-02-19T07:17:29.847Z,9.00
2019-02-19T07:20:10.561Z,8.90
2019-02-19T07:22:51.501Z,8.90
2019-02-19T07:25:31.906Z,8.90
2019-02-19T07:28:13.110Z,9.00
2019-02-19T07:30:53.793Z,9.00
2019-02-19T07:33:34.339Z,8.90
2019-02-19T07:36:15.366Z,8.80
2019-02-19T07:38:56.516Z,8.70
2019-02-19T07:41:36.914Z,8.90
2019-02-19T07:44:17.736Z,8.90
2019-02-19T07:46:58.735Z,9.00
2019-02-19T07:49:39.615Z,9.00
2019-02-19T07:52:20.335Z,9.00
2019-02-19T07:55:00.748Z,8.90
2019-02-19T07:57:42.895Z,8.90
2019-02-19T08:00:23.833Z,8.90
2019-02-19T08:03:05.023Z,8.90
2019-02-19T08:05:46.490Z,8.80
2019-02-19T08:08:27.398Z,8.80
2019-02-19T08:11:07.785Z,8.80
2019-02-19T08:13:48.716Z,8.80
2019-02-19T08:16:28.990Z,9.00
2019-02-19T08:19:09.802Z,8.90
2019-02-19T08:21:50.350Z,8.90
2019-02-19T08:24:31.158Z,9.00
2019-02-19T08:27:12.018Z,9.10
2019-02-19T08:29:52.630Z,9.00
2019-02-19T08:32:33.614Z,9.00
2019-02-19T08:35:14.337Z,9.10
2019-02-19T08:37:55.635Z,9.20
2019-02-19T08:40:36.718Z,9.20
2019-02-19T08:43:17.414Z,9.20
2019-02-19T08:45:57.798Z,9.20
2019-02-19T08:48:38.810Z,9.20
2019-02-19T08:51:19.362Z,9.20
2019-02-19T08:54:00.276Z,9.20
2019-02-19T08:56:41.037Z,9.10
2019-02-19T08:59:22.074Z,9.10
2019-02-19T09:02:02.810Z,9.20
2019-02-19T09:04:43.578Z,9.30
2019-02-19T09:07:24.094Z,9.40
2019-02-19T09:10:04.742Z,9.50
2019-02-19T09:12:45.532Z,9.40
2019-02-19T09:15:26.222Z,9.40
2019-02-19T09:18:06.979Z,9.40
2019-02-19T09:20:46.010Z,9.50
2019-02-19T09:23:33.999Z,9.60
2019-02-19T09:26:21.977Z,9.50
2019-02-19T09:29:09.973Z,9.60
2019-02-19T09:31:57.957Z,9.40
2019-02-19T09:34:45.957Z,9.40
2019-02-19T09:37:33.984Z,9.40
2019-02-19T09:40:22.263Z,9.30
2019-02-19T09:43:10.242Z,9.40
2019-02-19T09:45:59.057Z,9.50
2019-02-19T09:48:47.946Z,9.40
2019-02-19T09:51:35.956Z,9.40
2019-02-19T09:54:23.990Z,9.30
2019-02-19T10:00:19.223Z,9.50
2019-02-19T10:03:07.218Z,9.60
2019-02-19T10:05:55.202Z,9.50
2019-02-19T10:08:43.263Z,9.50
2019-02-19T10:11:31.603Z,9.60
2019-02-19T10:14:19.606Z,9.60
2019-02-19T10:17:07.610Z,9.50
2019-02-19T10:19:55.604Z,9.50
2019-02-19T10:22:36.422Z,9.70
2019-02-19T10:25:16.978Z,9.60
2019-02-19T10:27:57.640Z,9.70
2019-02-19T10:30:38.312Z,9.80
2019-02-19T10:33:19.182Z,9.90
2019-02-19T10:35:59.965Z,10.00
2019-02-19T10:38:40.698Z,10.00
2019-02-19T10:41:21.259Z,10.00
2019-02-19T10:44:02.038Z,9.70
2019-02-19T10:46:43.089Z,9.80
2019-02-19T10:49:23.670Z,9.90
2019-02-19T10:52:04.121Z,10.00
2019-02-19T10:54:44.830Z,10.10
2019-02-19T10:57:25.609Z,10.20
2019-02-19T11:00:06.589Z,10.00
2019-02-19T11:02:46.946Z,9.90
2019-02-19T11:05:27.553Z,9.90
2019-02-19T11:08:08.738Z,10.10
2019-02-19T11:10:47.815Z,10.00
2019-02-19T11:13:35.838Z,10.10
2019-02-19T11:16:23.822Z,10.10
2019-02-19T11:19:12.186Z,10.00
2019-02-19T11:21:52.903Z,10.30
2019-02-19T11:24:34.071Z,10.30
2019-02-19T11:27:16.698Z,10.60
2019-02-19T11:29:57.978Z,10.60
2019-02-19T11:32:38.582Z,10.60
2019-02-19T11:35:19.153Z,10.40
2019-02-19T11:38:00.015Z,10.20
2019-02-19T11:40:40.637Z,10.20
2019-02-19T11:43:21.176Z,10.50
2019-02-19T11:46:01.862Z,10.50
2019-02-19T11:48:42.806Z,10.70
2019-02-19T11:51:23.424Z,10.80
2019-02-19T11:54:04.639Z,10.80
2019-02-19T11:56:45.695Z,10.90
2019-02-19T11:59:26.106Z,11.10
2019-02-19T12:02:11.399Z,11.00
2019-02-19T12:04:52.146Z,11.10
2019-02-19T12:07:33.033Z,11.00
2019-02-19T12:10:14.234Z,11.20
2019-02-19T12:12:55.118Z,11.00
2019-02-19T12:15:35.745Z,11.10
2019-02-19T12:18:16.399Z,11.30
2019-02-19T12:20:57.650Z,11.40
2019-02-19T12:23:38.113Z,11.10
2019-02-19T12:26:18.673Z,11.10
2019-02-19T12:28:59.190Z,11.30
2019-02-19T12:31:39.812Z,11.50
2019-02-19T12:34:20.588Z,11.60
2019-02-19T12:37:01.460Z,11.70
2019-02-19T12:39:42.277Z,11.60
2019-02-19T12:42:22.838Z,11.70
2019-02-19T12:45:03.510Z,11.70
2019-02-19T12:47:44.305Z,11.20
2019-02-19T12:50:25.538Z,11.10
2019-02-19T12:53:06.296Z,11.10
2019-02-19T12:55:47.075Z,11.10
2019-02-19T12:58:27.540Z,11.10
2019-02-19T13:01:08.367Z,11.20
2019-02-19T13:03:49.076Z,11.40
2019-02-19T13:06:29.749Z,11.10
2019-02-19T13:09:10.593Z,10.90
2019-02-19T13:11:51.070Z,10.90
2019-02-19T13:14:31.847Z,10.80
2019-02-19T13:17:12.626Z,10.70
2019-02-19T13:19:53.090Z,10.80
2019-02-19T13:22:33.667Z,10.70
2019-02-19T13:25:14.117Z,10.60
2019-02-19T13:27:54.926Z,10.60
2019-02-19T13:30:35.583Z,10.50
2019-02-19T13:33:16.155Z,10.40
2019-02-19T13:35:56.711Z,10.50
2019-02-19T13:38:37.310Z,10.70
2019-02-19T13:41:18.188Z,10.70
2019-02-19T13:43:59.540Z,10.60
2019-02-19T13:46:40.091Z,10.60
2019-02-19T13:49:20.577Z,10.60
2019-02-19T13:55:18.590Z,10.50
2019-02-19T13:57:59.479Z,10.40
2019-02-19T14:00:42.014Z,10.30
2019-02-19T14:03:23.422Z,10.40
2019-02-19T14:06:04.246Z,10.40
2019-02-19T14:08:44.818Z,10.50
2019-02-19T14:11:25.635Z,10.50
2019-02-19T14:14:25.805Z,10.40
2019-02-19T14:17:19.484Z,10.20
2019-02-19T14:20:11.514Z,10.10
2019-02-19T14:22:57.756Z,10.30
2019-02-19T14:25:51.290Z,10.40
2019-02-19T14:28:50.745Z,10.40
2019-02-19T14:31:50.373Z,10.50
2019-02-19T14:34:49.767Z,10.50
2019-02-19T14:37:49.479Z,10.40
2019-02-19T14:40:49.751Z,10.40
2019-02-19T14:43:49.753Z,10.50
2019-02-19T14:46:40.683Z,10.20
2019-02-19T14:49:47.216Z,10.40
2019-02-19T14:52:37.442Z,10.60
2019-02-19T14:55:36.855Z,10.60
2019-02-19T14:58:28.659Z,10.70
2019-02-19T15:01:30.270Z,10.70
2019-02-19T15:04:30.512Z,10.60
2019-02-19T15:07:30.090Z,10.50
2019-02-19T15:10:23.121Z,10.60
2019-02-19T15:13:23.262Z,10.60
2019-02-19T15:16:23.694Z,10.40
2019-02-19T15:19:26.991Z,10.50
2019-02-19T15:22:27.397Z,10.60
2019-02-19T15:25:27.646Z,10.40
2019-02-19T15:28:27.991Z,10.50
2019-02-19T15:31:30.871Z,10.40
2019-02-19T15:34:30.865Z,10.40
2019-02-19T15:37:30.593Z,10.40
2019-02-19T15:40:30.116Z,10.30
2019-02-19T15:43:29.898Z,10.50
2019-02-19T15:46:35.957Z,10.70
2019-02-19T15:49:35.336Z,10.70
2019-02-19T15:52:35.561Z,10.70
2019-02-19T15:55:41.140Z,10.70
2019-02-19T15:58:40.956Z,10.60
2019-02-19T16:04:40.563Z,10.60
2019-02-19T16:07:31.290Z,10.50
2019-02-19T16:10:26.222Z,10.50
2019-02-19T16:13:11.497Z,10.40
2019-02-19T16:16:10.908Z,10.40
2019-02-19T16:19:00.185Z,10.40
2019-02-19T16:22:06.135Z,10.30
2019-02-19T16:25:05.875Z,10.20
2019-02-19T16:28:06.094Z,9.90
2019-02-19T16:31:05.727Z,10.00
2019-02-19T16:34:06.107Z,10.10
2019-02-19T16:36:55.797Z,10.20
2019-02-19T16:39:55.841Z,10.10
2019-02-19T16:42:58.879Z,10.20
2019-02-19T16:45:59.022Z,10.30
2019-02-19T16:48:58.675Z,10.20
2019-02-19T16:51:49.974Z,10.20
2019-02-19T16:54:38.421Z,10.20
2019-02-19T16:57:38.402Z,10.00
2019-02-19T17:00:23.947Z,9.90
2019-02-19T17:03:11.618Z,9.80
2019-02-19T17:06:17.129Z,9.80
2019-02-19T17:09:11.294Z,9.80
2019-02-19T17:12:14.414Z,9.60
2019-02-19T17:15:17.282Z,9.60
2019-02-19T17:18:11.898Z,9.40
2019-02-19T17:21:11.847Z,9.30
2019-02-19T17:24:11.240Z,9.30
2019-02-19T17:27:10.763Z,9.30
2019-02-19T17:30:10.360Z,9.30
2019-02-19T17:33:01.540Z,9.40
2019-02-19T17:36:04.475Z,9.50
2019-02-19T17:38:51.585Z,9.50
2019-02-19T17:41:43.571Z,9.50
2019-02-19T17:44:36.025Z,9.30
2019-02-19T17:47:23.251Z,9.40
2019-02-19T17:50:13.034Z,9.60
2019-02-19T17:53:14.887Z,9.60
2019-02-19T17:56:22.966Z,9.60
2019-02-19T17:59:30.039Z,9.70
2019-02-19T18:02:37.098Z,9.70
2019-02-19T18:05:44.168Z,9.60
2019-02-19T18:08:51.218Z,9.60
2019-02-19T18:11:58.298Z,9.50
2019-02-19T18:15:05.383Z,9.40
2019-02-19T18:18:12.774Z,9.50
2019-02-19T18:21:01.098Z,9.60
2019-02-19T18:23:49.076Z,9.60
2019-02-19T18:26:37.073Z,9.60
2019-02-19T18:29:25.076Z,9.50
2019-02-19T18:32:13.049Z,9.40
2019-02-19T18:35:01.357Z,9.40
2019-02-19T18:37:49.397Z,9.50
2019-02-19T18:40:37.426Z,9.40
2019-02-19T18:43:25.437Z,9.40
2019-02-19T18:46:13.686Z,9.30
2019-02-19T18:49:01.686Z,9.30
2019-02-19T18:51:49.799Z,9.50
2019-02-19T18:54:38.042Z,9.60
2019-02-19T19:00:33.137Z,9.40
2019-02-19T19:06:28.223Z,9.50
2019-02-19T19:09:16.251Z,9.50
2019-02-19T19:12:04.255Z,9.50
2019-02-19T19:14:52.576Z,9.60
2019-02-19T19:17:40.555Z,9.70
2019-02-19T19:20:28.574Z,9.60
2019-02-19T19:23:09.737Z,9.70
2019-02-19T19:25:50.114Z,9.70
2019-02-19T19:28:30.975Z,9.70
2019-02-19T19:31:11.694Z,9.70
2019-02-19T19:33:52.536Z,9.70
2019-02-19T19:36:33.565Z,9.60
2019-02-19T19:39:14.722Z,9.50
2019-02-19T19:41:55.140Z,9.50
2019-02-19T19:44:36.221Z,9.30
2019-02-19T19:47:16.917Z,9.00
2019-02-19T19:49:57.804Z,8.90
2019-02-19T19:52:39.020Z,8.90
2019-02-19T19:55:19.651Z,9.00
2019-02-19T19:58:00.659Z,8.90
2019-02-19T20:00:41.433Z,8.80
2019-02-19T20:03:22.197Z,8.70
2019-02-19T20:06:02.964Z,8.70
2019-02-19T20:08:43.942Z,8.70
2019-02-19T20:11:24.282Z,8.50
2019-02-19T20:14:04.854Z,8.40
2019-02-19T20:16:45.579Z,8.40
2019-02-19T20:19:26.359Z,8.40
2019-02-19T20:22:07.060Z,8.40
2019-02-19T20:24:47.722Z,8.20
2019-02-19T20:27:28.681Z,8.20
2019-02-19T20:30:09.275Z,8.10
2019-02-19T20:32:50.098Z,7.90
2019-02-19T20:35:30.743Z,8.00
2019-02-19T20:38:11.458Z,7.80
2019-02-19T20:40:52.709Z,7.70
2019-02-19T20:43:33.736Z,7.70
2019-02-19T20:46:14.463Z,7.60
2019-02-19T20:48:55.237Z,7.50
2019-02-19T20:51:36.669Z,7.30
2019-02-19T20:54:17.872Z,7.40
2019-02-19T20:56:58.899Z,7.20
2019-02-19T20:59:39.459Z,7.20
2019-02-19T21:02:20.299Z,7.10
2019-02-19T21:05:00.980Z,7.10
2019-02-19T21:07:41.655Z,7.10
2019-02-19T21:10:22.366Z,7.20
2019-02-19T21:13:03.133Z,7.20
2019-02-19T21:15:44.012Z,7.30
2019-02-19T21:18:24.555Z,7.40
2019-02-19T21:21:05.253Z,7.60
2019-02-19T21:23:46.273Z,7.70
2019-02-19T21:26:26.937Z,7.70
2019-02-19T21:29:07.335Z,7.70
2019-02-19T21:31:48.534Z,7.90
2019-02-19T21:34:29.506Z,7.90
2019-02-19T21:37:10.302Z,7.90
2019-02-19T21:39:51.090Z,8.00
2019-02-19T21:42:31.793Z,8.10
2019-02-19T21:45:12.858Z,8.20
2019-02-19T21:47:53.602Z,8.20
2019-02-19T21:50:34.831Z,8.20
2019-02-19T21:53:15.572Z,8.20
2019-02-19T21:55:56.177Z,8.20
2019-02-19T21:58:37.127Z,8.20
2019-02-19T22:01:17.966Z,8.30
2019-02-19T22:03:58.837Z,8.40
2019-02-19T22:06:39.604Z,8.40
2019-02-19T22:09:20.208Z,8.30
2019-02-19T22:12:00.942Z,8.30
2019-02-19T22:14:42.026Z,8.30
2019-02-19T22:17:22.738Z,8.20
2019-02-19T22:20:03.780Z,8.40
2019-02-19T22:22:44.897Z,8.40
2019-02-19T22:25:25.866Z,8.30
2019-02-19T22:28:06.464Z,8.30
2019-02-19T22:30:47.274Z,8.30
2019-02-19T22:33:28.083Z,8.40
2019-02-19T22:36:08.907Z,8.20
2019-02-19T22:38:49.395Z,8.10
2019-02-19T22:41:30.285Z,8.10
2019-02-19T22:44:11.550Z,8.10
2019-02-19T22:46:52.653Z,8.10
2019-02-19T22:49:33.996Z,8.00
2019-02-19T22:52:14.332Z,7.90
2019-02-19T22:55:20.074Z,7.90
2019-02-19T22:58:01.294Z,7.70
2019-02-19T23:01:01.086Z,7.60
2019-02-19T23:03:42.362Z,7.70
2019-02-19T23:06:23.578Z,7.70
2019-02-19T23:09:05.822Z,7.70
2019-02-19T23:11:46.695Z,7.60
2019-02-19T23:14:27.602Z,7.60
2019-02-19T23:17:08.577Z,7.60
2019-02-19T23:19:49.072Z,7.60
2019-02-19T23:22:29.713Z,7.60
2019-02-19T23:25:10.362Z,7.60
2019-02-19T23:27:50.825Z,7.60
2019-02-19T23:30:33.624Z,7.60
2019-02-19T23:33:14.114Z,7.60
2019-02-19T23:35:59.696Z,7.50
2019-02-19T23:38:40.376Z,7.40
2019-02-19T23:41:21.382Z,7.30
2019-02-19T23:44:02.248Z,7.30
2019-02-19T23:46:44.080Z,7.20
2019-02-19T23:49:25.342Z,7.20
2019-02-19T23:52:06.536Z,7.20
2019-02-19T23:54:47.207Z,7.20
2019-02-19T23:57:27.590Z,7.20
